sensor_id;sensor_type;location;lat;lon;timestamp;pressure;altitude;pressure_sealevel;temperature;humidity
6132;BME280;3097;42.692;23.278;2023-10-09T00:00:57;95503.50;;;19.58;60.48
6132;BME280;3097;42.692;23.278;2023-10-09T00:03:41;95510.81;;;19.46;60.82
6132;BME280;3097;42.692;23.278;2023-10-09T00:06:08;95499.53;;;19.41;61.01
6132;BME280;3097;42.692;23.278;2023-10-09T00:08:33;95508.19;;;19.36;61.17
6132;BME280;3097;42.692;23.278;2023-10-09T00:11:02;95503.78;;;19.47;61.01
6132;BME280;3097;42.692;23.278;2023-10-09T00:13:40;95511.06;;;19.34;60.90
6132;BME280;3097;42.692;23.278;2023-10-09T00:16:16;95504.78;;;19.36;60.88
6132;BME280;3097;42.692;23.278;2023-10-09T00:18:42;95501.38;;;19.40;60.79
6132;BME280;3097;42.692;23.278;2023-10-09T00:21:18;95463.72;;;19.11;60.88
6132;BME280;3097;42.692;23.278;2023-10-09T00:23:53;95503.75;;;19.37;60.72
6132;BME280;3097;42.692;23.278;2023-10-09T00:26:21;95500.06;;;19.27;61.03
6132;BME280;3097;42.692;23.278;2023-10-09T00:28:47;95511.03;;;19.19;60.63
6132;BME280;3097;42.692;23.278;2023-10-09T00:31:16;95512.06;;;19.18;61.08
6132;BME280;3097;42.692;23.278;2023-10-09T00:33:44;95490.13;;;19.09;61.25
6132;BME280;3097;42.692;23.278;2023-10-09T00:36:10;95498.72;;;19.00;61.50
6132;BME280;3097;42.692;23.278;2023-10-09T00:38:37;95454.72;;;18.56;61.73
6132;BME280;3097;42.692;23.278;2023-10-09T00:41:10;95493.97;;;18.81;62.02
6132;BME280;3097;42.692;23.278;2023-10-09T00:43:37;95514.34;;;18.79;62.19
6132;BME280;3097;42.692;23.278;2023-10-09T00:46:04;95501.25;;;18.64;62.52
6132;BME280;3097;42.692;23.278;2023-10-09T00:48:52;95501.19;;;18.59;62.74
6132;BME280;3097;42.692;23.278;2023-10-09T00:51:18;95479.19;;;18.40;62.58
6132;BME280;3097;42.692;23.278;2023-10-09T00:53:49;95500.31;;;18.43;62.74
6132;BME280;3097;42.692;23.278;2023-10-09T00:56:19;95509.41;;;18.36;62.85
6132;BME280;3097;42.692;23.278;2023-10-09T00:58:52;95516.94;;;18.22;63.44
6132;BME280;3097;42.692;23.278;2023-10-09T01:01:24;95518.19;;;18.14;63.40
6132;BME280;3097;42.692;23.278;2023-10-09T01:03:54;95528.59;;;18.09;63.53
6132;BME280;3097;42.692;23.278;2023-10-09T01:06:21;95474.88;;;17.71;64.24
6132;BME280;3097;42.692;23.278;2023-10-09T01:08:52;95517.53;;;17.92;63.93
6132;BME280;3097;42.692;23.278;2023-10-09T01:11:38;95532.59;;;17.80;63.80
6132;BME280;3097;42.692;23.278;2023-10-09T01:14:14;95540.63;;;17.73;63.83
6132;BME280;3097;42.692;23.278;2023-10-09T01:16:40;95554.38;;;17.69;63.60
6132;BME280;3097;42.692;23.278;2023-10-09T01:19:07;95534.03;;;17.66;63.26
6132;BME280;3097;42.692;23.278;2023-10-09T01:21:38;95554.28;;;17.59;63.77
6132;BME280;3097;42.692;23.278;2023-10-09T01:24:05;95536.09;;;17.64;63.07
6132;BME280;3097;42.692;23.278;2023-10-09T01:26:38;95474.84;;;17.08;63.25
6132;BME280;3097;42.692;23.278;2023-10-09T01:29:08;95548.09;;;17.38;63.69
6132;BME280;3097;42.692;23.278;2023-10-09T01:31:44;95554.00;;;17.28;64.29
6132;BME280;3097;42.692;23.278;2023-10-09T01:34:31;95568.66;;;17.34;64.31
6132;BME280;3097;42.692;23.278;2023-10-09T01:37:20;95485.16;;;16.71;64.58
6132;BME280;3097;42.692;23.278;2023-10-09T01:39:55;95575.19;;;17.10;65.39
6132;BME280;3097;42.692;23.278;2023-10-09T01:42:25;95579.16;;;17.18;64.62
6132;BME280;3097;42.692;23.278;2023-10-09T01:45:01;95577.84;;;17.15;64.53
6132;BME280;3097;42.692;23.278;2023-10-09T01:47:41;95578.09;;;17.14;64.59
6132;BME280;3097;42.692;23.278;2023-10-09T01:50:11;95582.41;;;17.03;65.22
6132;BME280;3097;42.692;23.278;2023-10-09T01:52:44;95593.91;;;17.07;64.67
6132;BME280;3097;42.692;23.278;2023-10-09T01:55:10;95601.19;;;17.05;64.94
6132;BME280;3097;42.692;23.278;2023-10-09T01:57:40;95593.91;;;17.07;65.21
6132;BME280;3097;42.692;23.278;2023-10-09T02:00:09;95590.78;;;17.05;64.43
6132;BME280;3097;42.692;23.278;2023-10-09T02:02:41;95600.81;;;16.96;64.37
6132;BME280;3097;42.692;23.278;2023-10-09T02:05:10;95588.66;;;16.80;64.37
6132;BME280;3097;42.692;23.278;2023-10-09T02:07:50;95618.91;;;16.86;64.21
6132;BME280;3097;42.692;23.278;2023-10-09T02:10:22;95627.38;;;16.77;64.54
6132;BME280;3097;42.692;23.278;2023-10-09T02:13:04;95625.28;;;16.74;65.01
6132;BME280;3097;42.692;23.278;2023-10-09T02:15:39;95620.03;;;16.69;64.87
6132;BME280;3097;42.692;23.278;2023-10-09T02:18:09;95618.34;;;16.62;64.94
6132;BME280;3097;42.692;23.278;2023-10-09T02:20:44;95609.91;;;16.55;64.71
6132;BME280;3097;42.692;23.278;2023-10-09T02:23:20;95614.72;;;16.47;65.12
6132;BME280;3097;42.692;23.278;2023-10-09T02:25:50;95621.00;;;16.29;65.67
6132;BME280;3097;42.692;23.278;2023-10-09T02:28:18;95622.81;;;16.12;66.20
6132;BME280;3097;42.692;23.278;2023-10-09T02:30:47;95620.59;;;16.04;66.29
6132;BME280;3097;42.692;23.278;2023-10-09T02:33:16;95619.41;;;15.95;66.92
6132;BME280;3097;42.692;23.278;2023-10-09T02:35:56;95617.97;;;15.87;66.86
6132;BME280;3097;42.692;23.278;2023-10-09T02:38:25;95634.63;;;15.86;67.56
6132;BME280;3097;42.692;23.278;2023-10-09T02:40:51;95640.22;;;15.78;67.53
6132;BME280;3097;42.692;23.278;2023-10-09T02:43:46;95647.75;;;15.63;68.11
6132;BME280;3097;42.692;23.278;2023-10-09T02:46:17;95647.38;;;15.71;67.96
6132;BME280;3097;42.692;23.278;2023-10-09T02:48:47;95636.22;;;15.59;67.85
6132;BME280;3097;42.692;23.278;2023-10-09T02:51:18;95654.00;;;15.78;67.84
6132;BME280;3097;42.692;23.278;2023-10-09T02:54:08;95656.69;;;15.83;67.33
6132;BME280;3097;42.692;23.278;2023-10-09T02:56:50;95659.47;;;15.94;67.23
6132;BME280;3097;42.692;23.278;2023-10-09T02:59:30;95657.09;;;15.92;66.86
6132;BME280;3097;42.692;23.278;2023-10-09T03:01:56;95658.91;;;15.92;66.82
6132;BME280;3097;42.692;23.278;2023-10-09T03:04:22;95652.19;;;15.96;66.57
6132;BME280;3097;42.692;23.278;2023-10-09T03:06:48;95659.38;;;16.05;66.01
6132;BME280;3097;42.692;23.278;2023-10-09T03:09:18;95647.41;;;16.04;64.97
6132;BME280;3097;42.692;23.278;2023-10-09T03:11:51;95663.63;;;16.11;64.99
6132;BME280;3097;42.692;23.278;2023-10-09T03:14:21;95665.84;;;16.03;65.37
6132;BME280;3097;42.692;23.278;2023-10-09T03:16:50;95665.59;;;16.04;65.04
6132;BME280;3097;42.692;23.278;2023-10-09T03:19:16;95673.63;;;16.03;65.34
6132;BME280;3097;42.692;23.278;2023-10-09T03:21:42;95675.94;;;15.99;64.99
6132;BME280;3097;42.692;23.278;2023-10-09T03:24:09;95678.13;;;15.91;64.81
6132;BME280;3097;42.692;23.278;2023-10-09T03:26:37;95688.97;;;15.87;65.15
6132;BME280;3097;42.692;23.278;2023-10-09T03:29:02;95687.72;;;15.90;64.78
6132;BME280;3097;42.692;23.278;2023-10-09T03:31:32;95690.72;;;15.82;64.81
6132;BME280;3097;42.692;23.278;2023-10-09T03:33:59;95687.69;;;15.73;64.87
6132;BME280;3097;42.692;23.278;2023-10-09T03:36:24;95613.13;;;15.17;64.64
6132;BME280;3097;42.692;23.278;2023-10-09T03:38:52;95700.03;;;15.66;65.24
6132;BME280;3097;42.692;23.278;2023-10-09T03:41:23;95703.78;;;15.70;64.53
6132;BME280;3097;42.692;23.278;2023-10-09T03:43:51;95630.84;;;15.08;64.56
6132;BME280;3097;42.692;23.278;2023-10-09T03:46:17;95697.28;;;15.56;64.23
6132;BME280;3097;42.692;23.278;2023-10-09T03:48:58;95695.59;;;15.38;64.65
6132;BME280;3097;42.692;23.278;2023-10-09T03:51:27;95694.94;;;15.31;65.17
6132;BME280;3097;42.692;23.278;2023-10-09T03:53:53;95710.63;;;15.36;65.20
6132;BME280;3097;42.692;23.278;2023-10-09T03:56:19;95714.72;;;15.32;65.03
6132;BME280;3097;42.692;23.278;2023-10-09T03:58:47;95681.97;;;15.20;64.34
6132;BME280;3097;42.692;23.278;2023-10-09T04:01:19;95674.00;;;15.09;64.41
6132;BME280;3097;42.692;23.278;2023-10-09T04:03:58;95709.41;;;15.27;64.07
6132;BME280;3097;42.692;23.278;2023-10-09T04:06:29;95711.91;;;15.22;64.72
6132;BME280;3097;42.692;23.278;2023-10-09T04:09:03;95711.69;;;15.24;64.25
6132;BME280;3097;42.692;23.278;2023-10-09T04:11:47;95713.63;;;15.17;63.98
6132;BME280;3097;42.692;23.278;2023-10-09T04:14:15;95710.88;;;15.11;63.34
6132;BME280;3097;42.692;23.278;2023-10-09T04:16:57;95707.88;;;14.91;64.22
6132;BME280;3097;42.692;23.278;2023-10-09T04:19:42;95707.22;;;14.84;64.57
6132;BME280;3097;42.692;23.278;2023-10-09T04:22:16;95708.34;;;14.88;64.14
6132;BME280;3097;42.692;23.278;2023-10-09T04:24:52;95715.66;;;14.91;63.92
6132;BME280;3097;42.692;23.278;2023-10-09T04:27:17;95698.31;;;14.80;63.88
6132;BME280;3097;42.692;23.278;2023-10-09T04:29:52;95725.50;;;15.01;63.33
6132;BME280;3097;42.692;23.278;2023-10-09T04:32:19;95732.59;;;15.05;62.53
6132;BME280;3097;42.692;23.278;2023-10-09T04:34:45;95693.66;;;14.82;62.14
6132;BME280;3097;42.692;23.278;2023-10-09T04:37:36;95715.91;;;15.01;62.30
6132;BME280;3097;42.692;23.278;2023-10-09T04:40:03;95717.91;;;14.99;62.16
6132;BME280;3097;42.692;23.278;2023-10-09T04:42:58;95720.06;;;15.02;62.30
6132;BME280;3097;42.692;23.278;2023-10-09T04:45:24;95705.41;;;14.85;62.60
6132;BME280;3097;42.692;23.278;2023-10-09T04:48:07;95725.28;;;15.02;62.02
6132;BME280;3097;42.692;23.278;2023-10-09T04:50:34;95737.78;;;15.05;61.64
6132;BME280;3097;42.692;23.278;2023-10-09T04:52:59;95740.50;;;15.10;61.15
6132;BME280;3097;42.692;23.278;2023-10-09T04:55:45;95730.66;;;15.13;61.12
6132;BME280;3097;42.692;23.278;2023-10-09T04:58:21;95725.59;;;15.18;60.51
6132;BME280;3097;42.692;23.278;2023-10-09T05:00:51;95729.84;;;15.24;59.93
6132;BME280;3097;42.692;23.278;2023-10-09T05:03:23;95703.00;;;15.06;59.73
6132;BME280;3097;42.692;23.278;2023-10-09T05:06:11;95742.16;;;15.28;59.19
6132;BME280;3097;42.692;23.278;2023-10-09T05:08:46;95745.53;;;15.29;58.95
6132;BME280;3097;42.692;23.278;2023-10-09T05:11:13;95746.91;;;15.31;59.21
6132;BME280;3097;42.692;23.278;2023-10-09T05:14:01;95747.56;;;15.38;58.89
6132;BME280;3097;42.692;23.278;2023-10-09T05:16:39;95751.84;;;15.44;58.24
6132;BME280;3097;42.692;23.278;2023-10-09T05:19:20;95756.72;;;15.41;57.81
6132;BME280;3097;42.692;23.278;2023-10-09T05:22:15;95749.50;;;15.31;58.38
6132;BME280;3097;42.692;23.278;2023-10-09T05:25:01;95735.06;;;15.24;57.96
6132;BME280;3097;42.692;23.278;2023-10-09T05:27:27;95759.41;;;15.34;58.11
6132;BME280;3097;42.692;23.278;2023-10-09T05:30:25;95770.28;;;15.31;57.14
6132;BME280;3097;42.692;23.278;2023-10-09T05:32:52;95773.53;;;15.27;57.16
6132;BME280;3097;42.692;23.278;2023-10-09T05:35:22;95777.53;;;15.18;57.29
6132;BME280;3097;42.692;23.278;2023-10-09T05:38:06;95778.31;;;15.06;57.98
6132;BME280;3097;42.692;23.278;2023-10-09T05:40:41;95787.25;;;15.10;57.31
6132;BME280;3097;42.692;23.278;2023-10-09T05:43:09;95785.41;;;15.11;57.50
6132;BME280;3097;42.692;23.278;2023-10-09T05:45:54;95789.16;;;15.03;57.66
6132;BME280;3097;42.692;23.278;2023-10-09T05:48:40;95794.47;;;15.08;57.92
6132;BME280;3097;42.692;23.278;2023-10-09T05:51:05;95797.16;;;15.14;58.06
6132;BME280;3097;42.692;23.278;2023-10-09T05:53:34;95810.72;;;15.16;56.22
6132;BME280;3097;42.692;23.278;2023-10-09T05:56:20;95821.44;;;15.07;56.67
6132;BME280;3097;42.692;23.278;2023-10-09T05:58:57;95821.22;;;15.09;55.95
6132;BME280;3097;42.692;23.278;2023-10-09T06:01:41;95819.88;;;15.06;56.15
6132;BME280;3097;42.692;23.278;2023-10-09T06:04:16;95823.59;;;15.10;54.94
6132;BME280;3097;42.692;23.278;2023-10-09T06:06:43;95808.56;;;14.89;54.81
6132;BME280;3097;42.692;23.278;2023-10-09T06:09:13;95814.09;;;14.93;54.22
6132;BME280;3097;42.692;23.278;2023-10-09T06:11:40;95823.91;;;14.91;54.71
6132;BME280;3097;42.692;23.278;2023-10-09T06:14:07;95833.41;;;14.97;54.41
6132;BME280;3097;42.692;23.278;2023-10-09T06:16:42;95840.41;;;14.85;54.14
6132;BME280;3097;42.692;23.278;2023-10-09T06:19:13;95850.22;;;14.94;53.99
6132;BME280;3097;42.692;23.278;2023-10-09T06:21:45;95846.59;;;14.84;53.41
6132;BME280;3097;42.692;23.278;2023-10-09T06:24:30;95840.13;;;14.75;53.66
6132;BME280;3097;42.692;23.278;2023-10-09T06:27:06;95821.81;;;14.46;55.39
6132;BME280;3097;42.692;23.278;2023-10-09T06:29:32;95841.94;;;14.74;54.63
6132;BME280;3097;42.692;23.278;2023-10-09T06:32:11;95854.78;;;15.57;52.39
6132;BME280;3097;42.692;23.278;2023-10-09T06:34:58;95771.50;;;16.66;48.27
6132;BME280;3097;42.692;23.278;2023-10-09T06:37:44;95858.25;;;18.95;43.12
6132;BME280;3097;42.692;23.278;2023-10-09T06:43:03;95825.94;;;22.04;38.69
6132;BME280;3097;42.692;23.278;2023-10-09T06:45:50;95827.94;;;23.34;35.00
6132;BME280;3097;42.692;23.278;2023-10-09T06:48:34;95832.50;;;24.23;32.21
6132;BME280;3097;42.692;23.278;2023-10-09T06:51:03;95831.03;;;24.55;31.19
6132;BME280;3097;42.692;23.278;2023-10-09T06:53:33;95841.59;;;25.06;28.76
6132;BME280;3097;42.692;23.278;2023-10-09T06:56:17;95838.03;;;25.75;28.79
6132;BME280;3097;42.692;23.278;2023-10-09T06:58:58;95837.41;;;26.19;28.28
6132;BME280;3097;42.692;23.278;2023-10-09T07:01:25;95833.75;;;26.79;27.68
6132;BME280;3097;42.692;23.278;2023-10-09T07:03:51;95823.28;;;27.41;26.60
6132;BME280;3097;42.692;23.278;2023-10-09T07:06:20;95819.88;;;27.49;24.28
6132;BME280;3097;42.692;23.278;2023-10-09T07:09:01;95823.09;;;27.68;25.91
6132;BME280;3097;42.692;23.278;2023-10-09T07:11:36;95831.47;;;28.01;25.04
6132;BME280;3097;42.692;23.278;2023-10-09T07:14:23;95838.09;;;28.21;24.45
6132;BME280;3097;42.692;23.278;2023-10-09T07:17:05;95838.59;;;28.57;23.27
6132;BME280;3097;42.692;23.278;2023-10-09T07:19:46;95839.69;;;28.47;22.90
6132;BME280;3097;42.692;23.278;2023-10-09T07:22:12;95833.00;;;27.54;23.05
6132;BME280;3097;42.692;23.278;2023-10-09T07:25:01;95837.88;;;26.49;25.02
6132;BME280;3097;42.692;23.278;2023-10-09T07:27:40;95831.72;;;25.44;26.16
6132;BME280;3097;42.692;23.278;2023-10-09T07:30:10;95825.25;;;24.72;26.66
6132;BME280;3097;42.692;23.278;2023-10-09T07:35:21;95845.75;;;23.42;28.26
6132;BME280;3097;42.692;23.278;2023-10-09T07:38:05;95836.97;;;22.94;29.79
6132;BME280;3097;42.692;23.278;2023-10-09T07:40:34;95837.72;;;22.99;29.31
6132;BME280;3097;42.692;23.278;2023-10-09T07:43:18;95841.75;;;22.87;29.57
6132;BME280;3097;42.692;23.278;2023-10-09T07:45:43;95852.16;;;22.14;29.48
6132;BME280;3097;42.692;23.278;2023-10-09T07:48:15;95845.00;;;21.40;31.14
6132;BME280;3097;42.692;23.278;2023-10-09T07:50:40;95847.63;;;21.30;30.92
6132;BME280;3097;42.692;23.278;2023-10-09T07:53:24;95849.72;;;21.48;31.86
6132;BME280;3097;42.692;23.278;2023-10-09T07:55:54;95825.06;;;21.29;30.77
6132;BME280;3097;42.692;23.278;2023-10-09T07:58:32;95858.63;;;20.86;31.09
6132;BME280;3097;42.692;23.278;2023-10-09T08:00:58;95854.66;;;20.43;31.25
6132;BME280;3097;42.692;23.278;2023-10-09T08:03:46;95856.59;;;20.05;31.97
6132;BME280;3097;42.692;23.278;2023-10-09T08:06:12;95859.91;;;19.81;33.00
6132;BME280;3097;42.692;23.278;2023-10-09T08:09:16;95860.56;;;20.23;34.86
6132;BME280;3097;42.692;23.278;2023-10-09T08:11:45;95847.06;;;20.52;33.64
6132;BME280;3097;42.692;23.278;2023-10-09T08:14:11;95851.06;;;20.90;31.22
6132;BME280;3097;42.692;23.278;2023-10-09T08:16:56;95860.66;;;20.38;29.99
6132;BME280;3097;42.692;23.278;2023-10-09T08:19:51;95861.59;;;20.07;31.36
6132;BME280;3097;42.692;23.278;2023-10-09T08:24:51;95856.22;;;19.77;33.13
6132;BME280;3097;42.692;23.278;2023-10-09T08:27:30;95852.91;;;19.49;32.48
6132;BME280;3097;42.692;23.278;2023-10-09T08:30:00;95850.97;;;19.34;33.03
6132;BME280;3097;42.692;23.278;2023-10-09T08:32:38;95848.66;;;19.38;33.14
6132;BME280;3097;42.692;23.278;2023-10-09T08:35:06;95834.22;;;19.30;33.11
6132;BME280;3097;42.692;23.278;2023-10-09T08:37:58;95829.69;;;19.16;33.77
6132;BME280;3097;42.692;23.278;2023-10-09T08:40:37;95821.88;;;19.21;34.01
6132;BME280;3097;42.692;23.278;2023-10-09T08:43:16;95824.94;;;19.13;34.85
6132;BME280;3097;42.692;23.278;2023-10-09T08:45:47;95812.00;;;19.33;33.89
6132;BME280;3097;42.692;23.278;2023-10-09T08:48:14;95821.19;;;19.41;34.31
6132;BME280;3097;42.692;23.278;2023-10-09T08:50:46;95800.00;;;19.37;31.35
6132;BME280;3097;42.692;23.278;2023-10-09T08:53:15;95802.50;;;19.17;32.51
6132;BME280;3097;42.692;23.278;2023-10-09T08:55:44;95801.41;;;19.13;33.80
6132;BME280;3097;42.692;23.278;2023-10-09T08:58:11;95796.28;;;19.28;33.60
6132;BME280;3097;42.692;23.278;2023-10-09T09:00:56;95804.00;;;19.50;31.36
6132;BME280;3097;42.692;23.278;2023-10-09T09:03:24;95804.22;;;19.43;30.75
6132;BME280;3097;42.692;23.278;2023-10-09T09:08:27;95801.66;;;19.11;33.23
6132;BME280;3097;42.692;23.278;2023-10-09T09:16:40;95808.03;;;19.67;30.89
6132;BME280;3097;42.692;23.278;2023-10-09T09:19:09;95816.94;;;19.71;30.13
6132;BME280;3097;42.692;23.278;2023-10-09T09:21:58;95804.03;;;19.55;30.07
6132;BME280;3097;42.692;23.278;2023-10-09T09:24:37;95797.63;;;19.36;29.98
6132;BME280;3097;42.692;23.278;2023-10-09T09:27:04;95815.41;;;19.33;31.21
6132;BME280;3097;42.692;23.278;2023-10-09T09:32:08;95797.38;;;19.32;32.10
6132;BME280;3097;42.692;23.278;2023-10-09T09:34:49;95801.41;;;19.13;29.90
6132;BME280;3097;42.692;23.278;2023-10-09T09:37:24;95785.63;;;18.98;30.32
6132;BME280;3097;42.692;23.278;2023-10-09T09:39:57;95775.31;;;18.81;31.09
6132;BME280;3097;42.692;23.278;2023-10-09T09:42:22;95773.00;;;18.84;31.56
6132;BME280;3097;42.692;23.278;2023-10-09T09:44:52;95780.41;;;18.98;30.05
6132;BME280;3097;42.692;23.278;2023-10-09T09:47:18;95785.59;;;18.92;29.64
6132;BME280;3097;42.692;23.278;2023-10-09T09:49:56;95779.53;;;18.87;30.41
6132;BME280;3097;42.692;23.278;2023-10-09T09:52:34;95783.34;;;19.06;31.05
6132;BME280;3097;42.692;23.278;2023-10-09T09:55:09;95765.31;;;19.10;30.71
6132;BME280;3097;42.692;23.278;2023-10-09T09:57:50;95761.50;;;19.27;29.60
6132;BME280;3097;42.692;23.278;2023-10-09T10:00:18;95754.44;;;19.23;30.10
6132;BME280;3097;42.692;23.278;2023-10-09T10:03:18;95748.44;;;19.27;28.72
6132;BME280;3097;42.692;23.278;2023-10-09T10:05:46;95749.16;;;19.18;29.54
6132;BME280;3097;42.692;23.278;2023-10-09T10:08:17;95744.78;;;19.23;29.14
6132;BME280;3097;42.692;23.278;2023-10-09T10:10:46;95742.16;;;19.23;29.02
6132;BME280;3097;42.692;23.278;2023-10-09T10:16:21;95730.84;;;19.18;27.30
6132;BME280;3097;42.692;23.278;2023-10-09T10:19:04;95714.09;;;19.09;27.97
6132;BME280;3097;42.692;23.278;2023-10-09T10:21:49;95721.25;;;19.23;28.67
6132;BME280;3097;42.692;23.278;2023-10-09T10:27:18;95697.72;;;19.28;27.51
6132;BME280;3097;42.692;23.278;2023-10-09T10:35:36;95620.94;;;18.87;29.71
6132;BME280;3097;42.692;23.278;2023-10-09T10:40:47;95663.97;;;19.27;29.40
6132;BME280;3097;42.692;23.278;2023-10-09T10:43:23;95657.22;;;19.36;29.72
6132;BME280;3097;42.692;23.278;2023-10-09T10:46:05;95652.47;;;19.23;30.52
6132;BME280;3097;42.692;23.278;2023-10-09T10:48:39;95645.94;;;19.25;31.52
6132;BME280;3097;42.692;23.278;2023-10-09T10:51:12;95651.75;;;19.43;30.83
6132;BME280;3097;42.692;23.278;2023-10-09T10:53:52;95646.31;;;19.49;31.03
6132;BME280;3097;42.692;23.278;2023-10-09T10:56:24;95643.97;;;19.58;30.84
6132;BME280;3097;42.692;23.278;2023-10-09T10:59:00;95642.16;;;19.63;31.07
6132;BME280;3097;42.692;23.278;2023-10-09T11:01:35;95640.06;;;19.60;30.84
6132;BME280;3097;42.692;23.278;2023-10-09T11:04:23;95629.06;;;19.63;30.18
6132;BME280;3097;42.692;23.278;2023-10-09T11:06:56;95641.63;;;19.61;30.43
6132;BME280;3097;42.692;23.278;2023-10-09T11:09:52;95637.19;;;19.67;30.77
6132;BME280;3097;42.692;23.278;2023-10-09T11:12:31;95615.50;;;19.77;30.30
6132;BME280;3097;42.692;23.278;2023-10-09T11:15:06;95615.22;;;19.73;30.34
6132;BME280;3097;42.692;23.278;2023-10-09T11:17:36;95603.22;;;19.77;30.23
6132;BME280;3097;42.692;23.278;2023-10-09T11:20:05;95599.53;;;19.83;29.93
6132;BME280;3097;42.692;23.278;2023-10-09T11:22:53;95572.59;;;19.83;29.32
6132;BME280;3097;42.692;23.278;2023-10-09T11:25:41;95590.38;;;19.91;29.67
6132;BME280;3097;42.692;23.278;2023-10-09T11:28:24;95565.25;;;19.95;29.32
6132;BME280;3097;42.692;23.278;2023-10-09T11:31:11;95584.09;;;20.02;29.13
6132;BME280;3097;42.692;23.278;2023-10-09T11:33:47;95577.31;;;19.91;28.27
6132;BME280;3097;42.692;23.278;2023-10-09T11:36:23;95598.75;;;19.88;29.25
6132;BME280;3097;42.692;23.278;2023-10-09T11:38:58;95560.00;;;19.64;29.43
6132;BME280;3097;42.692;23.278;2023-10-09T11:41:44;95590.91;;;19.83;29.66
6132;BME280;3097;42.692;23.278;2023-10-09T11:44:10;95577.03;;;19.87;29.04
6132;BME280;3097;42.692;23.278;2023-10-09T11:47:02;95570.47;;;19.85;29.45
6132;BME280;3097;42.692;23.278;2023-10-09T11:49:56;95566.31;;;19.89;29.15
6132;BME280;3097;42.692;23.278;2023-10-09T11:52:36;95561.59;;;19.86;28.80
6132;BME280;3097;42.692;23.278;2023-10-09T11:55:22;95470.53;;;19.27;29.50
6132;BME280;3097;42.692;23.278;2023-10-09T11:57:51;95549.00;;;19.93;29.02
6132;BME280;3097;42.692;23.278;2023-10-09T12:00:16;95537.78;;;19.97;29.59
6132;BME280;3097;42.692;23.278;2023-10-09T12:02:51;95530.69;;;20.03;29.16
6132;BME280;3097;42.692;23.278;2023-10-09T12:05:17;95529.38;;;20.10;28.68
6132;BME280;3097;42.692;23.278;2023-10-09T12:07:47;95523.13;;;20.06;28.63
6132;BME280;3097;42.692;23.278;2023-10-09T12:10:21;95518.41;;;19.98;29.35
6132;BME280;3097;42.692;23.278;2023-10-09T12:12:54;95477.88;;;19.81;29.17
6132;BME280;3097;42.692;23.278;2023-10-09T12:15:24;95509.72;;;20.23;28.34
6132;BME280;3097;42.692;23.278;2023-10-09T12:17:50;95514.41;;;20.31;28.04
6132;BME280;3097;42.692;23.278;2023-10-09T12:20:19;95511.28;;;20.29;28.78
6132;BME280;3097;42.692;23.278;2023-10-09T12:23:03;95512.88;;;20.35;28.46
6132;BME280;3097;42.692;23.278;2023-10-09T12:25:33;95504.41;;;20.54;26.93
6132;BME280;3097;42.692;23.278;2023-10-09T12:28:02;95494.47;;;20.51;27.25
6132;BME280;3097;42.692;23.278;2023-10-09T12:30:31;95502.03;;;20.57;26.93
6132;BME280;3097;42.692;23.278;2023-10-09T12:33:03;95493.38;;;20.67;26.69
6132;BME280;3097;42.692;23.278;2023-10-09T12:35:29;95463.75;;;20.61;25.62
6132;BME280;3097;42.692;23.278;2023-10-09T12:37:59;95485.34;;;20.92;25.46
6132;BME280;3097;42.692;23.278;2023-10-09T12:40:25;95485.34;;;20.92;25.20
6132;BME280;3097;42.692;23.278;2023-10-09T12:42:54;95475.41;;;20.94;24.85
6132;BME280;3097;42.692;23.278;2023-10-09T12:45:21;95448.47;;;20.78;25.24
6132;BME280;3097;42.692;23.278;2023-10-09T12:47:58;95476.97;;;20.95;24.63
6132;BME280;3097;42.692;23.278;2023-10-09T12:50:34;95472.25;;;20.97;25.83
6132;BME280;3097;42.692;23.278;2023-10-09T12:53:01;95468.00;;;21.01;26.14
6132;BME280;3097;42.692;23.278;2023-10-09T12:55:38;95461.66;;;21.12;26.11
6132;BME280;3097;42.692;23.278;2023-10-09T12:58:08;95468.84;;;20.92;25.61
6132;BME280;3097;42.692;23.278;2023-10-09T13:00:37;95468.53;;;20.98;25.45
6132;BME280;3097;42.692;23.278;2023-10-09T13:03:10;95455.63;;;21.12;23.87
6132;BME280;3097;42.692;23.278;2023-10-09T13:05:48;95451.69;;;21.19;23.90
6132;BME280;3097;42.692;23.278;2023-10-09T13:08:21;95425.28;;;21.01;25.18
6132;BME280;3097;42.692;23.278;2023-10-09T13:10:51;95444.06;;;21.13;25.77
6132;BME280;3097;42.692;23.278;2023-10-09T13:13:25;95447.44;;;21.23;25.24
6132;BME280;3097;42.692;23.278;2023-10-09T13:16:01;95439.19;;;21.35;24.46
6132;BME280;3097;42.692;23.278;2023-10-09T13:18:31;95426.38;;;21.34;23.90
6132;BME280;3097;42.692;23.278;2023-10-09T13:20:57;95422.72;;;21.30;24.28
6132;BME280;3097;42.692;23.278;2023-10-09T13:23:22;95433.31;;;21.19;25.04
6132;BME280;3097;42.692;23.278;2023-10-09T13:25:49;95420.97;;;21.15;24.86
6132;BME280;3097;42.692;23.278;2023-10-09T13:28:14;95416.94;;;21.33;23.76
6132;BME280;3097;42.692;23.278;2023-10-09T13:30:45;95422.72;;;21.35;23.39
6132;BME280;3097;42.692;23.278;2023-10-09T13:33:15;95414.78;;;21.40;23.14
6132;BME280;3097;42.692;23.278;2023-10-09T13:35:42;95420.31;;;21.38;23.44
6132;BME280;3097;42.692;23.278;2023-10-09T13:38:16;95390.00;;;21.22;22.96
6132;BME280;3097;42.692;23.278;2023-10-09T13:40:42;95419.53;;;21.38;23.56
6132;BME280;3097;42.692;23.278;2023-10-09T13:43:07;95418.97;;;21.41;23.69
6132;BME280;3097;42.692;23.278;2023-10-09T13:45:41;95417.41;;;21.40;24.17
6132;BME280;3097;42.692;23.278;2023-10-09T13:48:14;95415.31;;;21.37;23.59
6132;BME280;3097;42.692;23.278;2023-10-09T13:50:43;95398.59;;;21.28;24.38
6132;BME280;3097;42.692;23.278;2023-10-09T13:53:09;95398.72;;;21.17;24.86
6132;BME280;3097;42.692;23.278;2023-10-09T13:55:37;95392.28;;;21.34;24.49
6132;BME280;3097;42.692;23.278;2023-10-09T13:58:09;95387.63;;;21.26;24.91
6132;BME280;3097;42.692;23.278;2023-10-09T14:00:39;95386.47;;;21.37;24.90
6132;BME280;3097;42.692;23.278;2023-10-09T14:03:07;95394.44;;;21.27;25.07
6132;BME280;3097;42.692;23.278;2023-10-09T14:05:45;95362.78;;;21.18;24.88
6132;BME280;3097;42.692;23.278;2023-10-09T14:08:20;95385.88;;;21.45;24.54
6132;BME280;3097;42.692;23.278;2023-10-09T14:10:49;95371.84;;;21.31;24.98
6132;BME280;3097;42.692;23.278;2023-10-09T14:13:17;95387.44;;;21.46;24.68
6132;BME280;3097;42.692;23.278;2023-10-09T14:15:52;95387.44;;;21.46;24.91
6132;BME280;3097;42.692;23.278;2023-10-09T14:18:20;95395.84;;;21.43;25.21